createdAt,value
2017-11-16T00:00:11.707Z,14.97
2017-11-16T00:02:40.000Z,14.47
2017-11-16T00:05:07.575Z,13.10
2017-11-16T00:07:35.519Z,13.20
2017-11-16T00:10:03.839Z,14.93
2017-11-16T00:12:32.135Z,15.40
2017-11-16T00:15:00.523Z,16.70
2017-11-16T00:17:28.815Z,13.93
2017-11-16T00:19:57.113Z,15.00
2017-11-16T00:22:25.442Z,14.33
2017-11-16T00:24:56.524Z,14.77
2017-11-16T00:27:24.839Z,14.03
2017-11-16T00:29:53.871Z,13.20
2017-11-16T00:32:21.424Z,13.00
2017-11-16T00:34:48.961Z,14.40
2017-11-16T00:37:16.909Z,13.93
2017-11-16T00:39:45.213Z,13.10
2017-11-16T00:42:13.533Z,14.10
2017-11-16T00:44:41.841Z,16.00
2017-11-16T00:47:10.148Z,14.40
2017-11-16T00:49:38.448Z,14.43
2017-11-16T00:52:06.923Z,15.77
2017-11-16T00:54:35.212Z,14.17
2017-11-16T00:57:03.720Z,16.10
2017-11-16T00:59:32.012Z,14.87
2017-11-16T01:02:00.327Z,15.50
2017-11-16T01:04:28.631Z,13.50
2017-11-16T01:06:56.943Z,14.80
2017-11-16T01:09:25.236Z,16.87
2017-11-16T01:11:53.661Z,16.33
2017-11-16T01:14:21.946Z,16.03
2017-11-16T01:16:50.240Z,16.57
2017-11-16T01:19:18.610Z,14.97
2017-11-16T01:21:46.903Z,16.53
2017-11-16T01:24:15.211Z,17.83
2017-11-16T01:26:43.587Z,17.50
2017-11-16T01:29:11.898Z,17.87
2017-11-16T01:31:40.188Z,15.90
2017-11-16T01:34:08.498Z,17.30
2017-11-16T01:36:36.786Z,16.70
2017-11-16T01:39:04.329Z,17.33
2017-11-16T01:41:32.245Z,17.17
2017-11-16T01:44:00.595Z,15.30
2017-11-16T01:46:28.890Z,17.07
2017-11-16T01:48:57.210Z,16.00
2017-11-16T01:51:25.587Z,17.13
2017-11-16T01:53:53.907Z,17.10
2017-11-16T01:56:22.191Z,15.10
2017-11-16T01:58:50.504Z,17.80
2017-11-16T02:01:18.787Z,18.20
2017-11-16T02:03:47.107Z,18.40
2017-11-16T02:06:14.661Z,18.03
2017-11-16T02:08:43.000Z,16.60
2017-11-16T02:11:10.948Z,18.57
2017-11-16T02:13:39.239Z,19.57
2017-11-16T02:16:07.631Z,17.33
2017-11-16T02:18:35.936Z,17.60
2017-11-16T02:21:04.256Z,19.63
2017-11-16T02:23:33.288Z,19.57
2017-11-16T02:26:00.829Z,19.20
2017-11-16T02:28:29.119Z,18.67
2017-11-16T02:30:57.679Z,20.53
2017-11-16T02:33:25.974Z,17.57
2017-11-16T02:35:54.293Z,17.03
2017-11-16T02:38:22.575Z,17.27
2017-11-16T02:40:51.055Z,16.07
2017-11-16T02:43:19.604Z,18.50
2017-11-16T02:45:47.555Z,18.37
2017-11-16T02:48:15.899Z,17.90
2017-11-16T02:50:44.229Z,17.90
2017-11-16T02:53:12.523Z,18.40
2017-11-16T02:55:40.813Z,19.07
2017-11-16T02:58:09.124Z,18.50
2017-11-16T03:00:36.676Z,19.40
2017-11-16T03:03:04.621Z,17.30
2017-11-16T03:05:32.907Z,19.13
2017-11-16T03:08:01.220Z,18.57
2017-11-16T03:10:29.515Z,19.10
2017-11-16T03:12:57.927Z,16.07
2017-11-16T03:15:26.360Z,19.00
2017-11-16T03:17:54.672Z,17.47
2017-11-16T03:20:22.962Z,19.83
2017-11-16T03:22:51.305Z,18.70
2017-11-16T03:25:19.615Z,17.20
2017-11-16T03:27:47.935Z,19.37
2017-11-16T03:30:16.238Z,17.40
2017-11-16T03:32:44.704Z,19.00
2017-11-16T03:35:13.020Z,17.73
2017-11-16T03:37:41.307Z,18.57
2017-11-16T03:40:09.618Z,17.07
2017-11-16T03:42:37.904Z,19.63
2017-11-16T03:45:06.236Z,16.63
2017-11-16T03:47:34.646Z,15.60
2017-11-16T03:50:02.972Z,17.50
2017-11-16T03:52:31.324Z,18.53
2017-11-16T03:54:59.643Z,17.23
2017-11-16T03:57:28.018Z,17.03
2017-11-16T03:59:56.324Z,17.37
2017-11-16T04:02:23.847Z,17.70
2017-11-16T04:04:51.798Z,18.97
2017-11-16T04:07:20.832Z,17.73
2017-11-16T04:09:50.019Z,17.50
2017-11-16T04:12:19.463Z,18.27
2017-11-16T04:14:48.654Z,17.50
2017-11-16T04:17:17.951Z,17.93
2017-11-16T04:19:47.140Z,19.10
2017-11-16T04:22:16.318Z,17.93
2017-11-16T04:24:45.520Z,17.37
2017-11-16T04:27:14.736Z,16.73
2017-11-16T04:29:43.918Z,19.10
2017-11-16T04:32:13.110Z,18.17
2017-11-16T04:34:42.285Z,17.53
2017-11-16T04:37:11.487Z,19.33
2017-11-16T04:39:40.671Z,17.67
2017-11-16T04:42:09.876Z,19.37
2017-11-16T04:44:39.052Z,20.10
2017-11-16T04:47:08.244Z,18.30
2017-11-16T04:49:37.418Z,19.23
2017-11-16T04:52:06.613Z,18.23
2017-11-16T04:54:35.779Z,20.50
2017-11-16T04:57:04.971Z,17.63
2017-11-16T04:59:36.841Z,18.97
2017-11-16T05:02:06.046Z,18.50
2017-11-16T05:04:35.236Z,17.87
2017-11-16T05:07:04.435Z,16.63
2017-11-16T05:09:33.632Z,18.57
2017-11-16T05:12:03.002Z,18.60
2017-11-16T05:14:32.221Z,17.70
2017-11-16T05:17:01.432Z,18.67
2017-11-16T05:19:30.606Z,19.17
2017-11-16T05:21:59.810Z,17.83
2017-11-16T05:24:28.980Z,21.13
2017-11-16T05:26:58.193Z,19.40
2017-11-16T05:29:27.365Z,20.10
2017-11-16T05:31:57.001Z,19.23
2017-11-16T05:34:26.505Z,19.07
2017-11-16T05:36:55.702Z,21.37
2017-11-16T05:39:24.888Z,21.17
2017-11-16T05:41:54.102Z,22.70
2017-11-16T05:44:23.294Z,19.00
2017-11-16T05:46:52.572Z,19.17
2017-11-16T05:49:21.768Z,19.67
2017-11-16T05:51:50.974Z,21.10
2017-11-16T05:54:20.178Z,19.80
2017-11-16T05:56:49.352Z,18.17
2017-11-16T05:59:18.573Z,19.30
2017-11-16T06:01:47.766Z,19.40
2017-11-16T06:04:16.965Z,17.33
2017-11-16T06:06:46.159Z,19.60
2017-11-16T06:09:15.355Z,20.27
2017-11-16T06:11:44.550Z,19.83
2017-11-16T06:14:13.752Z,17.90
2017-11-16T06:16:42.926Z,19.23
2017-11-16T06:19:12.143Z,19.53
2017-11-16T06:21:41.491Z,17.97
2017-11-16T06:24:10.682Z,17.90
2017-11-16T06:26:39.857Z,18.40
2017-11-16T06:29:09.076Z,17.93
2017-11-16T06:31:38.254Z,18.17
2017-11-16T06:34:07.444Z,17.00
2017-11-16T06:36:36.627Z,19.50
2017-11-16T06:39:06.208Z,21.33
2017-11-16T06:41:35.472Z,18.67
2017-11-16T06:44:04.679Z,19.80
2017-11-16T06:46:33.993Z,19.27
2017-11-16T06:49:03.179Z,20.80
2017-11-16T06:51:32.354Z,19.10
2017-11-16T06:54:01.816Z,19.63
2017-11-16T06:56:30.991Z,19.00
2017-11-16T06:59:00.489Z,18.43
2017-11-16T07:01:29.691Z,18.67
2017-11-16T07:03:58.879Z,19.43
2017-11-16T07:06:28.078Z,19.30
2017-11-16T07:08:57.252Z,21.90
2017-11-16T07:11:26.450Z,19.30
2017-11-16T07:13:55.641Z,20.77
2017-11-16T07:16:24.838Z,19.30
2017-11-16T07:18:54.028Z,20.97
2017-11-16T07:21:23.236Z,19.80
2017-11-16T07:23:52.476Z,18.93
2017-11-16T07:26:21.674Z,20.57
2017-11-16T07:28:50.860Z,19.60
2017-11-16T07:31:20.058Z,20.10
2017-11-16T07:33:49.234Z,19.13
2017-11-16T07:36:18.422Z,19.70
2017-11-16T07:38:47.586Z,18.90
2017-11-16T07:41:16.815Z,18.17
2017-11-16T07:43:45.999Z,18.50
2017-11-16T07:46:15.216Z,22.27
2017-11-16T07:48:44.388Z,19.03
2017-11-16T07:51:13.574Z,20.23
2017-11-16T07:53:42.753Z,19.83
2017-11-16T07:56:11.958Z,20.03
2017-11-16T07:58:41.145Z,19.47
2017-11-16T08:01:10.693Z,21.03
2017-11-16T08:03:39.879Z,22.10
2017-11-16T08:06:09.484Z,21.47
2017-11-16T08:08:38.681Z,19.40
2017-11-16T08:11:07.859Z,19.73
2017-11-16T08:13:37.352Z,19.80
2017-11-16T08:16:06.527Z,19.73
2017-11-16T08:18:35.719Z,20.37
2017-11-16T08:21:04.896Z,18.07
2017-11-16T08:23:34.422Z,19.87
2017-11-16T08:26:03.607Z,20.03
2017-11-16T08:28:32.812Z,19.87
2017-11-16T08:31:01.985Z,18.47
2017-11-16T08:33:31.183Z,22.77
2017-11-16T08:36:00.380Z,19.03
2017-11-16T08:38:29.574Z,17.87
2017-11-16T08:40:58.747Z,19.20
2017-11-16T08:43:27.944Z,20.30
2017-11-16T08:45:57.119Z,20.03
2017-11-16T08:48:25.457Z,10.40
2017-11-16T08:50:53.012Z,14.03
2017-11-16T08:53:21.164Z,16.27
2017-11-16T08:55:50.050Z,18.27
2017-11-16T08:58:17.994Z,15.93
2017-11-16T09:00:45.578Z,17.67
2017-11-16T09:03:13.500Z,19.10
2017-11-16T09:05:41.955Z,19.27
2017-11-16T09:08:10.677Z,20.30
2017-11-16T09:10:38.638Z,20.60
2017-11-16T09:13:06.927Z,18.80
2017-11-16T09:15:35.479Z,19.07
2017-11-16T09:18:07.850Z,19.80
2017-11-16T09:20:35.848Z,18.53
2017-11-16T09:23:04.202Z,20.40
2017-11-16T09:25:32.627Z,19.07
2017-11-16T09:28:00.961Z,20.47
2017-11-16T09:30:29.259Z,20.60
2017-11-16T09:32:57.558Z,20.43
2017-11-16T09:35:25.509Z,20.40
2017-11-16T09:37:53.800Z,18.90
2017-11-16T09:40:21.383Z,19.40
2017-11-16T09:42:49.843Z,19.50
2017-11-16T09:45:18.901Z,21.87
2017-11-16T09:47:47.214Z,18.53
2017-11-16T09:50:15.166Z,17.77
2017-11-16T09:52:43.080Z,17.93
2017-11-16T09:55:10.949Z,18.90
2017-11-16T09:57:39.364Z,19.47
2017-11-16T10:00:06.914Z,17.90
2017-11-16T10:02:34.446Z,17.87
2017-11-16T10:05:02.740Z,16.00
2017-11-16T10:07:30.276Z,15.27
2017-11-16T10:09:58.564Z,15.53
2017-11-16T10:12:26.103Z,16.97
2017-11-16T10:14:53.627Z,16.67
2017-11-16T10:17:21.940Z,17.33
2017-11-16T10:19:49.461Z,15.13
2017-11-16T10:22:16.999Z,15.53
2017-11-16T10:24:44.528Z,15.80
2017-11-16T10:27:12.062Z,13.87
2017-11-16T10:29:39.587Z,13.20
2017-11-16T10:32:07.128Z,13.37
2017-11-16T10:34:34.657Z,13.27
2017-11-16T10:37:02.214Z,13.30
2017-11-16T10:39:30.139Z,14.27
2017-11-16T10:41:57.679Z,15.00
2017-11-16T10:44:25.199Z,15.17
2017-11-16T10:46:52.732Z,14.07
2017-11-16T10:49:20.500Z,13.60
2017-11-16T10:51:48.048Z,13.83
2017-11-16T10:54:15.579Z,14.20
2017-11-16T10:56:43.903Z,16.80
2017-11-16T10:59:11.438Z,18.37
2017-11-16T11:01:38.978Z,19.97
2017-11-16T11:04:06.507Z,14.20
2017-11-16T11:06:34.036Z,13.70
2017-11-16T11:09:01.575Z,14.57
2017-11-16T11:11:29.091Z,13.37
2017-11-16T11:13:57.259Z,12.60
2017-11-16T11:16:24.780Z,12.17
2017-11-16T11:18:52.323Z,11.13
2017-11-16T11:21:19.843Z,11.40
2017-11-16T11:23:47.383Z,10.97
2017-11-16T11:26:15.438Z,11.23
2017-11-16T11:28:43.366Z,11.53
2017-11-16T11:31:10.874Z,9.50
2017-11-16T11:33:38.436Z,12.10
2017-11-16T11:36:06.728Z,11.47
2017-11-16T11:38:34.267Z,11.20
2017-11-16T11:41:02.755Z,11.73
2017-11-16T11:43:30.304Z,12.50
2017-11-16T11:45:57.841Z,11.23
2017-11-16T11:48:25.784Z,11.30
2017-11-16T11:50:54.080Z,11.13
2017-11-16T11:53:21.627Z,9.80
2017-11-16T11:55:49.912Z,10.83
2017-11-16T11:58:18.209Z,10.23
2017-11-16T12:00:45.758Z,12.87
2017-11-16T12:03:13.310Z,11.13
2017-11-16T12:05:41.626Z,12.07
2017-11-16T12:08:09.153Z,12.00
2017-11-16T12:10:37.095Z,10.80
2017-11-16T12:13:05.175Z,13.60
2017-11-16T12:15:32.720Z,11.50
2017-11-16T12:18:00.247Z,10.90
2017-11-16T12:20:27.791Z,11.00
2017-11-16T12:22:55.313Z,9.80
2017-11-16T12:25:22.861Z,12.00
2017-11-16T12:27:50.388Z,12.33
2017-11-16T12:30:19.162Z,10.73
2017-11-16T12:32:47.608Z,13.27
2017-11-16T12:35:15.156Z,11.73
2017-11-16T12:37:42.729Z,11.60
2017-11-16T12:40:10.264Z,11.90
2017-11-16T12:42:37.830Z,12.10
2017-11-16T12:45:09.679Z,12.00
2017-11-16T12:47:37.276Z,12.37
2017-11-16T12:50:05.656Z,11.93
2017-11-16T12:52:34.067Z,12.50
2017-11-16T12:55:02.363Z,12.33
2017-11-16T12:57:30.479Z,11.30
2017-11-16T12:59:59.632Z,12.20
2017-11-16T13:02:27.175Z,11.07
2017-11-16T13:04:54.736Z,11.63
2017-11-16T13:07:23.413Z,12.63
2017-11-16T13:09:50.932Z,11.70
2017-11-16T13:12:19.145Z,12.87
2017-11-16T13:14:47.434Z,12.20
2017-11-16T13:17:15.001Z,13.70
2017-11-16T13:19:42.552Z,11.50
2017-11-16T13:22:12.068Z,11.57
2017-11-16T13:24:39.602Z,12.00
2017-11-16T13:27:07.135Z,11.30
2017-11-16T13:29:34.771Z,10.70
2017-11-16T13:32:03.128Z,11.43
2017-11-16T13:34:30.652Z,11.90
2017-11-16T13:36:58.976Z,12.73
2017-11-16T13:39:26.503Z,10.87
2017-11-16T13:41:54.818Z,12.80
2017-11-16T13:44:23.603Z,13.00
2017-11-16T13:46:51.552Z,12.40
2017-11-16T13:49:19.864Z,12.07
2017-11-16T13:51:48.406Z,12.40
2017-11-16T13:54:16.748Z,12.87
2017-11-16T13:56:45.047Z,13.30
2017-11-16T13:59:13.374Z,13.60
2017-11-16T14:01:41.668Z,12.30
2017-11-16T14:04:09.981Z,11.80
2017-11-16T14:06:37.511Z,12.53
2017-11-16T14:09:05.525Z,12.90
2017-11-16T14:11:33.860Z,13.30
2017-11-16T14:14:02.251Z,11.87
2017-11-16T14:16:30.371Z,13.13
2017-11-16T14:18:59.388Z,15.20
2017-11-16T14:21:26.931Z,13.20
2017-11-16T14:23:56.915Z,12.10
2017-11-16T14:26:25.203Z,13.30
2017-11-16T14:28:53.504Z,12.30
2017-11-16T14:31:21.790Z,11.63
2017-11-16T14:33:50.096Z,13.43
2017-11-16T14:36:18.851Z,11.47
2017-11-16T14:38:46.780Z,10.00
2017-11-16T14:41:16.886Z,12.53
2017-11-16T14:43:44.796Z,11.57
2017-11-16T14:46:13.106Z,11.23
2017-11-16T14:48:41.428Z,11.37
2017-11-16T14:51:09.982Z,11.00
2017-11-16T14:53:38.300Z,11.27
2017-11-16T14:56:07.415Z,11.40
2017-11-16T14:58:34.952Z,11.40
2017-11-16T15:01:03.383Z,11.43
2017-11-16T15:03:32.733Z,12.97
2017-11-16T15:06:01.596Z,12.23
2017-11-16T15:08:29.529Z,12.20
2017-11-16T15:10:57.843Z,11.20
2017-11-16T15:13:26.146Z,13.00
2017-11-16T15:15:54.495Z,10.97
2017-11-16T15:18:22.792Z,11.97
2017-11-16T15:20:52.467Z,11.10
2017-11-16T15:23:20.751Z,12.27
2017-11-16T15:25:49.959Z,12.57
2017-11-16T15:28:18.286Z,13.33
2017-11-16T15:30:46.660Z,12.00
2017-11-16T15:33:15.179Z,11.93
2017-11-16T15:35:43.477Z,12.63
2017-11-16T15:38:11.795Z,12.50
2017-11-16T15:40:39.929Z,13.27
2017-11-16T15:43:08.011Z,12.67
2017-11-16T15:45:35.922Z,12.83
2017-11-16T15:48:03.464Z,12.90
2017-11-16T15:50:31.773Z,12.67
2017-11-16T15:52:59.715Z,14.57
2017-11-16T15:55:28.002Z,12.67
2017-11-16T15:57:56.330Z,14.50
2017-11-16T16:00:24.630Z,12.53
2017-11-16T16:02:52.939Z,12.37
2017-11-16T16:05:21.231Z,14.77
2017-11-16T16:07:49.554Z,15.70
2017-11-16T16:10:17.920Z,12.70
2017-11-16T16:12:46.235Z,13.63
2017-11-16T16:15:14.543Z,14.10
2017-11-16T16:17:42.855Z,13.97
2017-11-16T16:20:11.182Z,13.77
2017-11-16T16:22:39.511Z,13.47
2017-11-16T16:25:07.810Z,13.53
2017-11-16T16:27:36.166Z,12.37
2017-11-16T16:30:04.566Z,14.13
2017-11-16T16:32:32.867Z,12.60
2017-11-16T16:35:01.582Z,13.90
2017-11-16T16:37:30.381Z,13.33
2017-11-16T16:39:57.942Z,12.90
2017-11-16T16:42:26.403Z,13.10
2017-11-16T16:44:55.931Z,14.07
2017-11-16T16:47:24.223Z,14.73
2017-11-16T16:49:53.304Z,15.40
2017-11-16T16:52:20.861Z,13.67
2017-11-16T16:54:49.346Z,14.23
2017-11-16T16:57:17.639Z,12.90
2017-11-16T16:59:45.965Z,16.20
2017-11-16T17:02:14.275Z,13.70
2017-11-16T17:04:42.646Z,13.40
2017-11-16T17:07:11.283Z,14.20
2017-11-16T17:09:43.027Z,13.70
2017-11-16T17:12:12.118Z,15.63
2017-11-16T17:14:40.060Z,14.57
2017-11-16T17:17:09.068Z,13.43
2017-11-16T17:19:36.957Z,16.33
2017-11-16T17:22:05.780Z,15.83
2017-11-16T17:24:34.102Z,15.57
2017-11-16T17:27:01.665Z,15.23
2017-11-16T17:29:29.219Z,15.20
2017-11-16T17:31:57.230Z,15.53
2017-11-16T17:34:25.562Z,14.70
2017-11-16T17:36:53.855Z,14.70
2017-11-16T17:39:22.167Z,15.23
2017-11-16T17:41:50.476Z,14.23
2017-11-16T17:44:18.791Z,14.97
2017-11-16T17:46:47.094Z,15.50
2017-11-16T17:49:15.635Z,17.27
2017-11-16T17:51:43.955Z,14.47
2017-11-16T17:54:12.261Z,13.00
2017-11-16T17:56:40.847Z,12.77
2017-11-16T17:59:08.857Z,13.93
2017-11-16T18:01:37.179Z,15.30
2017-11-16T18:04:06.206Z,14.93
2017-11-16T18:06:34.159Z,14.47
2017-11-16T18:09:02.084Z,14.37
2017-11-16T18:11:30.394Z,14.80
2017-11-16T18:13:58.972Z,13.50
2017-11-16T18:16:28.207Z,14.23
2017-11-16T18:18:55.735Z,15.80
2017-11-16T18:21:24.079Z,15.37
2017-11-16T18:23:53.295Z,14.33
2017-11-16T18:26:23.293Z,13.40
2017-11-16T18:28:50.815Z,13.93
2017-11-16T18:31:18.733Z,14.80
2017-11-16T18:33:47.056Z,14.57
2017-11-16T18:36:15.344Z,15.10
2017-11-16T18:38:43.669Z,15.97
2017-11-16T18:41:12.928Z,17.10
2017-11-16T18:43:40.623Z,17.37
2017-11-16T18:46:08.912Z,15.50
2017-11-16T18:48:37.224Z,14.70
2017-11-16T18:51:05.566Z,15.97
2017-11-16T18:53:33.883Z,15.13
2017-11-16T18:56:02.182Z,16.57
2017-11-16T18:58:30.484Z,15.43
2017-11-16T19:00:59.372Z,14.63
2017-11-16T19:03:27.311Z,15.50
2017-11-16T19:05:55.600Z,16.37
2017-11-16T19:08:23.915Z,15.20
2017-11-16T19:10:52.204Z,15.23
2017-11-16T19:13:20.503Z,14.90
2017-11-16T19:15:48.831Z,15.97
2017-11-16T19:18:17.126Z,17.80
2017-11-16T19:20:45.444Z,16.67
2017-11-16T19:23:13.802Z,16.90
2017-11-16T19:25:42.112Z,17.23
2017-11-16T19:28:10.411Z,17.77
2017-11-16T19:30:38.759Z,17.00
2017-11-16T19:33:07.059Z,17.60
2017-11-16T19:35:34.605Z,17.47
2017-11-16T19:38:02.523Z,18.27
2017-11-16T19:40:30.884Z,18.03
2017-11-16T19:43:00.302Z,17.30
2017-11-16T19:45:28.421Z,18.80
2017-11-16T20:34:37.025Z,17.70
2017-11-16T20:37:20.876Z,19.07
2017-11-16T20:43:00.852Z,17.70
2017-11-16T20:45:34.857Z,19.37
2017-11-16T20:48:09.484Z,19.10
2017-11-16T20:50:44.674Z,18.47
2017-11-16T20:53:13.420Z,20.37
2017-11-16T20:55:44.186Z,20.20
2017-11-16T20:58:11.744Z,19.60
2017-11-16T21:00:42.383Z,19.57
2017-11-16T21:03:10.696Z,19.90
2017-11-16T21:05:38.351Z,18.30
2017-11-16T21:08:07.140Z,17.90
2017-11-16T21:10:35.431Z,18.73
2017-11-16T21:13:04.088Z,19.60
2017-11-16T21:15:31.608Z,20.60
2017-11-16T21:18:00.691Z,19.57
2017-11-16T21:20:29.206Z,19.20
2017-11-16T21:22:57.706Z,21.80
2017-11-16T21:25:26.032Z,20.27
2017-11-16T21:27:54.391Z,22.20
2017-11-16T21:30:22.709Z,19.07
2017-11-16T21:32:51.033Z,21.43
2017-11-16T21:35:20.314Z,17.70
2017-11-16T21:37:49.036Z,21.03
2017-11-16T21:40:17.361Z,20.57
2017-11-16T21:42:45.658Z,20.10
2017-11-16T21:45:13.981Z,20.40
2017-11-16T21:47:42.317Z,20.20
2017-11-16T21:50:10.651Z,21.60
2017-11-16T21:52:39.013Z,21.10
2017-11-16T21:55:07.862Z,21.27
2017-11-16T21:57:35.779Z,21.30
2017-11-16T22:00:04.108Z,19.50
2017-11-16T22:02:33.676Z,19.40
2017-11-16T22:05:01.995Z,18.97
2017-11-16T22:07:30.289Z,19.90
2017-11-16T22:09:58.596Z,21.67
2017-11-16T22:12:26.899Z,21.53
2017-11-16T22:14:55.257Z,21.53
2017-11-16T22:17:23.560Z,21.00
2017-11-16T22:19:52.826Z,21.77
2017-11-16T22:22:20.352Z,18.40
2017-11-16T22:24:48.717Z,19.23
2017-11-16T22:27:17.010Z,21.90
2017-11-16T22:29:45.327Z,20.13
2017-11-16T22:32:13.635Z,22.43
2017-11-16T22:34:42.900Z,22.13
2017-11-16T22:37:11.416Z,22.40
2017-11-16T22:39:40.493Z,19.97
2017-11-16T22:42:08.054Z,21.30
2017-11-16T22:44:36.940Z,21.30
2017-11-16T22:47:06.156Z,19.77
2017-11-16T22:49:35.527Z,21.20
2017-11-16T22:52:03.061Z,20.40
2017-11-16T22:54:30.987Z,21.03
2017-11-16T22:56:59.305Z,20.00
2017-11-16T22:59:27.823Z,19.57
2017-11-16T23:01:56.146Z,20.80
2017-11-16T23:04:24.443Z,23.13
2017-11-16T23:06:52.789Z,20.40
2017-11-16T23:09:21.100Z,21.57
2017-11-16T23:11:49.439Z,22.17
2017-11-16T23:14:17.757Z,20.90
2017-11-16T23:16:46.222Z,20.30
2017-11-16T23:19:14.795Z,19.20
2017-11-16T23:21:42.754Z,23.27
2017-11-16T23:24:11.100Z,19.70
2017-11-16T23:26:40.548Z,23.50
2017-11-16T23:29:08.848Z,20.90
2017-11-16T23:31:37.139Z,20.50
2017-11-16T23:34:05.456Z,22.70
2017-11-16T23:36:33.459Z,21.70
2017-11-16T23:39:01.027Z,21.53
2017-11-16T23:41:30.124Z,23.30
2017-11-16T23:43:57.672Z,20.40
2017-11-16T23:46:25.959Z,21.80
2017-11-16T23:48:54.264Z,22.40
2017-11-16T23:51:25.422Z,21.70
2017-11-16T23:53:54.613Z,21.87
2017-11-16T23:56:22.613Z,22.23
2017-11-16T23:58:50.154Z,21.80
